Tennessee — FM3908 — position and weather

sailwx.info

Track history (hours):
 
Tides and Currents Weather Stations Pressure Air Temp Water Temp Dewpoint Dewpoint Depression Visibility Wind Speed Wind Dir Waves Ship Positions

Tennessee

Last reported at 2017-Aug-12 10:43 UTC. Time now 2017-Aug-24 00:57 UTC.
Position N 43°40' E 004°28'.
Warning: this ship's position is 11 days out of date.

Length 80 m; draft 0.3 m.

Type: Ship. MMSI: 227095770.

Date/timePositionNaut miles runAvg speedWind from/ knotsBaromVisibWave heightAir tempDewpointWater temp
2017-Aug-12 10:43N 43°40' E 004°28'1 4.7
2017-Aug-12 10:30N 43°39' E 004°27'1 2.0
2017-Aug-12 10:00N 43°39' E 004°26'34 0.8
2017-Aug-10 14:14N 43°24' E 003°43'  
2017-Aug-07 21:26N 43°24' E 003°43'0 0.0
2017-Aug-07 21:00N 43°24' E 003°43'0 0.0
2017-Aug-07 20:22N 43°24' E 003°43'0 0.0
2017-Aug-07 19:27N 43°24' E 003°43'0 0.0
2017-Aug-07 18:24N 43°24' E 003°43'0 0.0
2017-Aug-07 17:42N 43°24' E 003°43'0 0.0
2017-Aug-07 17:30N 43°24' E 003°43'0 0.0
2017-Aug-07 16:59N 43°24' E 003°43'0 0.0
2017-Aug-07 16:07N 43°24' E 003°43'0 0.0
2017-Aug-07 15:49N 43°24' E 003°43'0 0.0
2017-Aug-07 15:28N 43°24' E 003°43'0 0.0
2017-Aug-07 14:57N 43°24' E 003°43'0 0.0
2017-Aug-07 14:30N 43°24' E 003°43'0 0.0
2017-Aug-07 13:38N 43°24' E 003°43'0 0.0
2017-Aug-07 13:28N 43°24' E 003°43'0 0.0
2017-Aug-07 12:57N 43°24' E 003°43'0 0.0
2017-Aug-07 11:59N 43°24' E 003°43'0 0.0
2017-Aug-07 11:22N 43°24' E 003°43'0 0.0
2017-Aug-07 06:37N 43°24' E 003°43'  
2017-Aug-04 05:51N 43°28' E 003°49'0 0.0
2017-Aug-04 03:44N 43°28' E 003°49'0 0.0
2017-Aug-03 22:19N 43°28' E 003°49'0 0.0
2017-Aug-03 21:52N 43°28' E 003°49'0 0.0
2017-Aug-03 21:25N 43°28' E 003°49'0 0.0
2017-Aug-03 20:56N 43°28' E 003°49'0 0.0
2017-Aug-03 20:30N 43°28' E 003°49'0 0.0
2017-Aug-03 19:57N 43°28' E 003°49'0 0.0
2017-Aug-03 19:30N 43°28' E 003°49'0 0.0
2017-Aug-03 18:52N 43°28' E 003°49'0 0.0
2017-Aug-03 18:30N 43°28' E 003°49'0 0.0
2017-Aug-03 17:53N 43°28' E 003°49'0 0.0
2017-Aug-03 16:46N 43°28' E 003°49'0 0.0
2017-Aug-03 16:30N 43°28' E 003°49'0 0.0
2017-Aug-03 16:00N 43°28' E 003°49'0 0.0
2017-Aug-03 15:25N 43°28' E 003°49'0 0.0
2017-Aug-03 14:47N 43°28' E 003°49'0 0.0
2017-Aug-03 14:00N 43°28' E 003°49'0 0.0
2017-Aug-03 13:04N 43°28' E 003°49'0 0.0
2017-Aug-03 13:00N 43°28' E 003°49'0 0.0
2017-Aug-03 12:30N 43°28' E 003°49'0 0.0
2017-Aug-03 12:00N 43°28' E 003°49'0 0.0
2017-Aug-03 11:30N 43°28' E 003°49'0 0.0
2017-Aug-03 11:00N 43°28' E 003°49'0 0.0
2017-Aug-03 10:30N 43°28' E 003°49'0 0.0
2017-Aug-03 08:18N 43°28' E 003°49'0 0.0
2017-Aug-03 07:49N 43°28' E 003°49'0 0.0
2017-Aug-03 07:23N 43°28' E 003°49'0 0.0
2017-Aug-03 06:49N 43°28' E 003°49'0 0.0
2017-Aug-03 06:30N 43°28' E 003°49'0 0.0
2017-Aug-03 06:00N 43°28' E 003°49'0 0.0
2017-Aug-03 05:23N 43°28' E 003°49'0 0.0
2017-Aug-03 05:00N 43°28' E 003°49'0 0.0
2017-Aug-03 04:30N 43°28' E 003°49'0 0.0
2017-Aug-03 03:59N 43°28' E 003°49'0 0.0
2017-Aug-03 02:33N 43°28' E 003°49'0 0.0
2017-Aug-03 02:20N 43°28' E 003°49'0 0.0
2017-Aug-03 01:58N 43°28' E 003°49'0 0.0
2017-Aug-03 01:30N 43°28' E 003°49'0 0.0
2017-Aug-03 00:57N 43°28' E 003°49'0 0.0
2017-Aug-03 00:28N 43°28' E 003°49'0 0.0
2017-Aug-02 23:57N 43°28' E 003°49'0 0.0
2017-Aug-02 23:29N 43°28' E 003°49'0 0.0
2017-Aug-02 22:59N 43°28' E 003°49'0 0.0
2017-Aug-02 21:23N 43°28' E 003°49'0 0.0
2017-Aug-02 21:00N 43°28' E 003°49'0 0.0
2017-Aug-02 20:30N 43°28' E 003°49'0 0.0
2017-Aug-02 18:16N 43°28' E 003°49'0 0.0
2017-Aug-02 17:51N 43°28' E 003°49'0 0.0
2017-Aug-02 16:39N 43°28' E 003°49'0 0.0
2017-Aug-02 15:33N 43°28' E 003°49'0 0.0
2017-Aug-02 15:30N 43°28' E 003°49'1 1.6
2017-Aug-02 14:58N 43°28' E 003°50'4 2.7
2017-Aug-02 13:30N 43°31' E 003°53'1 1.9
2017-Aug-02 13:00N 43°32' E 003°54'  
Track history (hours):
 
Tides and Currents Weather Stations Pressure Air Temp Water Temp Dewpoint Dewpoint Depression Visibility Wind Speed Wind Dir Waves Ship Positions

Tennessee

Last reported at 2017-Aug-12 10:43 UTC. Time now 2017-Aug-24 00:57 UTC.
Position N 43°40' E 004°28'.
Warning: this ship's position is 11 days out of date.

Length 80 m; draft 0.3 m.

Type: Ship. MMSI: 227095770.

Date/timePositionNaut miles runAvg speedWind from/ knotsBaromVisibWave heightAir tempDewpointWater temp
2017-Aug-12 10:43N 43°40' E 004°28'1 4.7
2017-Aug-12 10:30N 43°39' E 004°27'1 2.0
2017-Aug-12 10:00N 43°39' E 004°26'34 0.8
2017-Aug-10 14:14N 43°24' E 003°43'  
2017-Aug-07 21:26N 43°24' E 003°43'0 0.0
2017-Aug-07 21:00N 43°24' E 003°43'0 0.0
2017-Aug-07 20:22N 43°24' E 003°43'0 0.0
2017-Aug-07 19:27N 43°24' E 003°43'0 0.0
2017-Aug-07 18:24N 43°24' E 003°43'0 0.0
2017-Aug-07 17:42N 43°24' E 003°43'0 0.0
2017-Aug-07 17:30N 43°24' E 003°43'0 0.0
2017-Aug-07 16:59N 43°24' E 003°43'0 0.0
2017-Aug-07 16:07N 43°24' E 003°43'0 0.0
2017-Aug-07 15:49N 43°24' E 003°43'0 0.0
2017-Aug-07 15:28N 43°24' E 003°43'0 0.0
2017-Aug-07 14:57N 43°24' E 003°43'0 0.0
2017-Aug-07 14:30N 43°24' E 003°43'0 0.0
2017-Aug-07 13:38N 43°24' E 003°43'0 0.0
2017-Aug-07 13:28N 43°24' E 003°43'0 0.0
2017-Aug-07 12:57N 43°24' E 003°43'0 0.0
2017-Aug-07 11:59N 43°24' E 003°43'0 0.0
2017-Aug-07 11:22N 43°24' E 003°43'0 0.0
2017-Aug-07 06:37N 43°24' E 003°43'  
2017-Aug-04 05:51N 43°28' E 003°49'0 0.0
2017-Aug-04 03:44N 43°28' E 003°49'0 0.0
2017-Aug-03 22:19N 43°28' E 003°49'0 0.0
2017-Aug-03 21:52N 43°28' E 003°49'0 0.0
2017-Aug-03 21:25N 43°28' E 003°49'0 0.0
2017-Aug-03 20:56N 43°28' E 003°49'0 0.0
2017-Aug-03 20:30N 43°28' E 003°49'0 0.0
2017-Aug-03 19:57N 43°28' E 003°49'0 0.0
2017-Aug-03 19:30N 43°28' E 003°49'0 0.0
2017-Aug-03 18:52N 43°28' E 003°49'0 0.0
2017-Aug-03 18:30N 43°28' E 003°49'0 0.0
2017-Aug-03 17:53N 43°28' E 003°49'0 0.0
2017-Aug-03 16:46N 43°28' E 003°49'0 0.0
2017-Aug-03 16:30N 43°28' E 003°49'0 0.0
2017-Aug-03 16:00N 43°28' E 003°49'0 0.0
2017-Aug-03 15:25N 43°28' E 003°49'0 0.0
2017-Aug-03 14:47N 43°28' E 003°49'0 0.0
2017-Aug-03 14:00N 43°28' E 003°49'0 0.0
2017-Aug-03 13:04N 43°28' E 003°49'0 0.0
2017-Aug-03 13:00N 43°28' E 003°49'0 0.0
2017-Aug-03 12:30N 43°28' E 003°49'0 0.0
2017-Aug-03 12:00N 43°28' E 003°49'0 0.0
2017-Aug-03 11:30N 43°28' E 003°49'0 0.0
2017-Aug-03 11:00N 43°28' E 003°49'0 0.0
2017-Aug-03 10:30N 43°28' E 003°49'0 0.0
2017-Aug-03 08:18N 43°28' E 003°49'0 0.0
2017-Aug-03 07:49N 43°28' E 003°49'0 0.0
2017-Aug-03 07:23N 43°28' E 003°49'0 0.0
2017-Aug-03 06:49N 43°28' E 003°49'0 0.0
2017-Aug-03 06:30N 43°28' E 003°49'0 0.0
2017-Aug-03 06:00N 43°28' E 003°49'0 0.0
2017-Aug-03 05:23N 43°28' E 003°49'0 0.0
2017-Aug-03 05:00N 43°28' E 003°49'0 0.0
2017-Aug-03 04:30N 43°28' E 003°49'0 0.0
2017-Aug-03 03:59N 43°28' E 003°49'0 0.0
2017-Aug-03 02:33N 43°28' E 003°49'0 0.0
2017-Aug-03 02:20N 43°28' E 003°49'0 0.0
2017-Aug-03 01:58N 43°28' E 003°49'0 0.0
2017-Aug-03 01:30N 43°28' E 003°49'0 0.0
2017-Aug-03 00:57N 43°28' E 003°49'0 0.0
2017-Aug-03 00:28N 43°28' E 003°49'0 0.0
2017-Aug-02 23:57N 43°28' E 003°49'0 0.0
2017-Aug-02 23:29N 43°28' E 003°49'0 0.0
2017-Aug-02 22:59N 43°28' E 003°49'0 0.0
2017-Aug-02 21:23N 43°28' E 003°49'0 0.0
2017-Aug-02 21:00N 43°28' E 003°49'0 0.0
2017-Aug-02 20:30N 43°28' E 003°49'0 0.0
2017-Aug-02 18:16N 43°28' E 003°49'0 0.0
2017-Aug-02 17:51N 43°28' E 003°49'0 0.0
2017-Aug-02 16:39N 43°28' E 003°49'0 0.0
2017-Aug-02 15:33N 43°28' E 003°49'0 0.0
2017-Aug-02 15:30N 43°28' E 003°49'1 1.6
2017-Aug-02 14:58N 43°28' E 003°50'4 2.7
2017-Aug-02 13:30N 43°31' E 003°53'1 1.9
2017-Aug-02 13:00N 43°32' E 003°54'  

Dump ship's entire track history